sensor_id;sensor_type;location;lat;lon;timestamp;temperature;humidity
31046;DHT22;17711;54.018;9.300;2022-08-11T00:02:29;16.50;99.90
31046;DHT22;17711;54.018;9.300;2022-08-11T00:05:05;16.60;99.90
31046;DHT22;17711;54.018;9.300;2022-08-11T00:07:42;16.60;99.90
31046;DHT22;17711;54.018;9.300;2022-08-11T00:10:15;16.50;99.90
31046;DHT22;17711;54.018;9.300;2022-08-11T00:12:51;16.60;99.90
31046;DHT22;17711;54.018;9.300;2022-08-11T00:15:21;16.60;99.90
31046;DHT22;17711;54.018;9.300;2022-08-11T00:17:55;16.60;99.90
31046;DHT22;17711;54.018;9.300;2022-08-11T00:20:30;16.70;99.90
31046;DHT22;17711;54.018;9.300;2022-08-11T00:23:02;16.70;99.90
31046;DHT22;17711;54.018;9.300;2022-08-11T00:25:40;16.90;99.90
31046;DHT22;17711;54.018;9.300;2022-08-11T00:28:29;17.00;99.90
31046;DHT22;17711;54.018;9.300;2022-08-11T00:31:00;16.90;99.90
31046;DHT22;17711;54.018;9.300;2022-08-11T00:33:35;16.90;99.90
31046;DHT22;17711;54.018;9.300;2022-08-11T00:36:15;17.10;99.90
31046;DHT22;17711;54.018;9.300;2022-08-11T00:38:51;17.10;99.90
31046;DHT22;17711;54.018;9.300;2022-08-11T00:41:31;17.00;99.90
31046;DHT22;17711;54.018;9.300;2022-08-11T00:47:11;16.90;99.90
31046;DHT22;17711;54.018;9.300;2022-08-11T00:49:51;16.90;99.90
31046;DHT22;17711;54.018;9.300;2022-08-11T00:52:32;16.80;99.90
31046;DHT22;17711;54.018;9.300;2022-08-11T00:55:40;16.90;99.90
31046;DHT22;17711;54.018;9.300;2022-08-11T01:02:05;16.90;99.90
31046;DHT22;17711;54.018;9.300;2022-08-11T01:05:13;16.90;99.90
31046;DHT22;17711;54.018;9.300;2022-08-11T01:08:13;16.90;99.90
31046;DHT22;17711;54.018;9.300;2022-08-11T01:10:53;16.70;99.90
31046;DHT22;17711;54.018;9.300;2022-08-11T01:13:54;16.50;99.90
31046;DHT22;17711;54.018;9.300;2022-08-11T01:20:09;16.20;99.90
31046;DHT22;17711;54.018;9.300;2022-08-11T01:36:06;15.60;99.90
31046;DHT22;17711;54.018;9.300;2022-08-11T01:39:25;15.60;99.90
31046;DHT22;17711;54.018;9.300;2022-08-11T01:45:29;15.70;99.90
31046;DHT22;17711;54.018;9.300;2022-08-11T01:48:05;15.70;99.90
31046;DHT22;17711;54.018;9.300;2022-08-11T01:53:52;15.80;99.90
31046;DHT22;17711;54.018;9.300;2022-08-11T01:56:43;15.90;99.90
31046;DHT22;17711;54.018;9.300;2022-08-11T01:59:17;15.80;99.90
31046;DHT22;17711;54.018;9.300;2022-08-11T02:02:02;15.80;99.90
31046;DHT22;17711;54.018;9.300;2022-08-11T02:04:37;15.70;99.90
31046;DHT22;17711;54.018;9.300;2022-08-11T02:07:16;15.70;99.90
31046;DHT22;17711;54.018;9.300;2022-08-11T02:10:02;15.60;99.90
31046;DHT22;17711;54.018;9.300;2022-08-11T02:13:11;15.40;99.90
31046;DHT22;17711;54.018;9.300;2022-08-11T02:15:45;15.40;99.90
31046;DHT22;17711;54.018;9.300;2022-08-11T02:18:21;15.30;99.90
31046;DHT22;17711;54.018;9.300;2022-08-11T02:20:54;15.20;99.90
31046;DHT22;17711;54.018;9.300;2022-08-11T02:23:50;15.20;99.90
31046;DHT22;17711;54.018;9.300;2022-08-11T02:26:40;15.10;99.90
31046;DHT22;17711;54.018;9.300;2022-08-11T02:29:14;15.10;99.90
31046;DHT22;17711;54.018;9.300;2022-08-11T02:31:56;15.00;99.90
31046;DHT22;17711;54.018;9.300;2022-08-11T02:35:03;15.00;99.90
31046;DHT22;17711;54.018;9.300;2022-08-11T02:37:50;14.90;99.90
31046;DHT22;17711;54.018;9.300;2022-08-11T02:40:27;15.00;99.90
31046;DHT22;17711;54.018;9.300;2022-08-11T02:43:08;14.90;99.90
31046;DHT22;17711;54.018;9.300;2022-08-11T02:45:50;14.90;99.90
31046;DHT22;17711;54.018;9.300;2022-08-11T02:48:45;14.80;99.90
31046;DHT22;17711;54.018;9.300;2022-08-11T02:51:40;14.70;99.90
31046;DHT22;17711;54.018;9.300;2022-08-11T02:54:14;14.60;99.90
31046;DHT22;17711;54.018;9.300;2022-08-11T02:56:50;14.60;99.90
31046;DHT22;17711;54.018;9.300;2022-08-11T02:59:27;14.70;99.90
31046;DHT22;17711;54.018;9.300;2022-08-11T03:02:34;14.60;99.90
31046;DHT22;17711;54.018;9.300;2022-08-11T03:05:26;14.60;99.90
31046;DHT22;17711;54.018;9.300;2022-08-11T03:08:20;14.70;99.90
31046;DHT22;17711;54.018;9.300;2022-08-11T03:10:59;14.60;99.90
31046;DHT22;17711;54.018;9.300;2022-08-11T03:13:54;14.60;99.90
31046;DHT22;17711;54.018;9.300;2022-08-11T03:16:49;14.50;99.90
31046;DHT22;17711;54.018;9.300;2022-08-11T03:19:27;14.40;99.90
31046;DHT22;17711;54.018;9.300;2022-08-11T03:22:07;14.40;99.90
31046;DHT22;17711;54.018;9.300;2022-08-11T03:24:50;14.30;99.90
31046;DHT22;17711;54.018;9.300;2022-08-11T03:27:32;14.40;99.90
31046;DHT22;17711;54.018;9.300;2022-08-11T03:30:09;14.40;99.90
31046;DHT22;17711;54.018;9.300;2022-08-11T03:32:57;14.40;99.90
31046;DHT22;17711;54.018;9.300;2022-08-11T03:36:00;14.50;99.90
31046;DHT22;17711;54.018;9.300;2022-08-11T03:38:44;14.40;99.90
31046;DHT22;17711;54.018;9.300;2022-08-11T03:41:25;14.40;99.90
31046;DHT22;17711;54.018;9.300;2022-08-11T03:44:55;14.40;99.90
31046;DHT22;17711;54.018;9.300;2022-08-11T03:47:36;14.30;99.90
31046;DHT22;17711;54.018;9.300;2022-08-11T03:50:30;14.20;99.90
31046;DHT22;17711;54.018;9.300;2022-08-11T03:53:12;14.10;99.90
31046;DHT22;17711;54.018;9.300;2022-08-11T04:02:16;14.00;99.90
31046;DHT22;17711;54.018;9.300;2022-08-11T04:14:43;14.40;99.90
31046;DHT22;17711;54.018;9.300;2022-08-11T04:17:50;14.30;99.90
31046;DHT22;17711;54.018;9.300;2022-08-11T04:20:48;14.30;99.90
31046;DHT22;17711;54.018;9.300;2022-08-11T04:23:24;14.30;99.90
31046;DHT22;17711;54.018;9.300;2022-08-11T04:27:02;14.40;99.90
31046;DHT22;17711;54.018;9.300;2022-08-11T04:29:57;14.30;99.90
31046;DHT22;17711;54.018;9.300;2022-08-11T04:33:02;14.30;99.90
31046;DHT22;17711;54.018;9.300;2022-08-11T04:35:50;14.30;99.90
31046;DHT22;17711;54.018;9.300;2022-08-11T04:38:44;14.20;99.90
31046;DHT22;17711;54.018;9.300;2022-08-11T04:47:55;14.20;99.90
31046;DHT22;17711;54.018;9.300;2022-08-11T04:50:58;14.20;99.90
31046;DHT22;17711;54.018;9.300;2022-08-11T04:53:57;14.30;99.90
31046;DHT22;17711;54.018;9.300;2022-08-11T04:57:11;14.30;99.90
31046;DHT22;17711;54.018;9.300;2022-08-11T05:00:05;14.50;99.90
31046;DHT22;17711;54.018;9.300;2022-08-11T05:03:25;14.80;99.90
31046;DHT22;17711;54.018;9.300;2022-08-11T05:09:27;15.00;99.90
31046;DHT22;17711;54.018;9.300;2022-08-11T05:12:19;15.00;99.90
31046;DHT22;17711;54.018;9.300;2022-08-11T05:14:54;15.00;99.90
31046;DHT22;17711;54.018;9.300;2022-08-11T05:17:43;15.10;99.90
31046;DHT22;17711;54.018;9.300;2022-08-11T05:20:45;15.20;99.90
31046;DHT22;17711;54.018;9.300;2022-08-11T05:23:34;15.30;99.90
31046;DHT22;17711;54.018;9.300;2022-08-11T05:26:28;15.40;99.90
31046;DHT22;17711;54.018;9.300;2022-08-11T05:29:39;15.40;99.90
31046;DHT22;17711;54.018;9.300;2022-08-11T05:32:29;15.60;99.90
31046;DHT22;17711;54.018;9.300;2022-08-11T05:35:25;15.80;99.90
31046;DHT22;17711;54.018;9.300;2022-08-11T05:38:21;15.80;99.90
31046;DHT22;17711;54.018;9.300;2022-08-11T05:41:10;15.90;99.90
31046;DHT22;17711;54.018;9.300;2022-08-11T05:43:58;16.10;99.90
31046;DHT22;17711;54.018;9.300;2022-08-11T05:46:49;16.20;99.90
31046;DHT22;17711;54.018;9.300;2022-08-11T05:49:36;16.30;99.90
31046;DHT22;17711;54.018;9.300;2022-08-11T05:52:25;16.50;99.90
31046;DHT22;17711;54.018;9.300;2022-08-11T05:55:15;16.60;99.90
31046;DHT22;17711;54.018;9.300;2022-08-11T05:58:02;16.60;99.90
31046;DHT22;17711;54.018;9.300;2022-08-11T06:00:40;16.70;99.90
31046;DHT22;17711;54.018;9.300;2022-08-11T06:03:10;16.80;99.90
31046;DHT22;17711;54.018;9.300;2022-08-11T06:05:40;17.00;99.90
31046;DHT22;17711;54.018;9.300;2022-08-11T06:08:11;17.10;99.90
31046;DHT22;17711;54.018;9.300;2022-08-11T06:10:43;17.10;99.90
31046;DHT22;17711;54.018;9.300;2022-08-11T06:13:14;17.20;99.90
31046;DHT22;17711;54.018;9.300;2022-08-11T06:15:45;17.30;99.90
31046;DHT22;17711;54.018;9.300;2022-08-11T06:18:15;17.40;99.90
31046;DHT22;17711;54.018;9.300;2022-08-11T06:20:49;17.50;99.90
31046;DHT22;17711;54.018;9.300;2022-08-11T06:23:20;17.60;99.90
31046;DHT22;17711;54.018;9.300;2022-08-11T06:25:52;17.70;99.90
31046;DHT22;17711;54.018;9.300;2022-08-11T06:28:30;17.80;99.90
31046;DHT22;17711;54.018;9.300;2022-08-11T06:30:59;17.80;99.90
31046;DHT22;17711;54.018;9.300;2022-08-11T06:33:32;17.90;99.90
31046;DHT22;17711;54.018;9.300;2022-08-11T06:36:04;18.00;99.90
31046;DHT22;17711;54.018;9.300;2022-08-11T06:38:52;18.20;99.90
31046;DHT22;17711;54.018;9.300;2022-08-11T06:41:32;18.20;99.90
31046;DHT22;17711;54.018;9.300;2022-08-11T06:44:09;18.30;99.90
31046;DHT22;17711;54.018;9.300;2022-08-11T06:46:41;18.40;99.90
31046;DHT22;17711;54.018;9.300;2022-08-11T06:49:12;18.50;99.90
31046;DHT22;17711;54.018;9.300;2022-08-11T06:51:57;18.60;99.90
31046;DHT22;17711;54.018;9.300;2022-08-11T06:54:33;18.70;99.90
31046;DHT22;17711;54.018;9.300;2022-08-11T06:57:04;18.90;99.90
31046;DHT22;17711;54.018;9.300;2022-08-11T06:59:57;19.00;99.90
31046;DHT22;17711;54.018;9.300;2022-08-11T07:02:48;19.10;99.90
31046;DHT22;17711;54.018;9.300;2022-08-11T07:05:22;19.20;99.90
31046;DHT22;17711;54.018;9.300;2022-08-11T07:08:14;19.30;99.90
31046;DHT22;17711;54.018;9.300;2022-08-11T07:11:23;19.40;99.90
31046;DHT22;17711;54.018;9.300;2022-08-11T07:14:17;19.50;99.90
31046;DHT22;17711;54.018;9.300;2022-08-11T07:17:07;19.70;99.90
31046;DHT22;17711;54.018;9.300;2022-08-11T07:19:36;19.80;99.90
31046;DHT22;17711;54.018;9.300;2022-08-11T07:22:23;19.90;99.90
31046;DHT22;17711;54.018;9.300;2022-08-11T07:25:13;20.00;99.90
31046;DHT22;17711;54.018;9.300;2022-08-11T07:28:01;20.20;99.90
31046;DHT22;17711;54.018;9.300;2022-08-11T07:30:52;20.30;99.90
31046;DHT22;17711;54.018;9.300;2022-08-11T07:33:29;20.40;99.90
31046;DHT22;17711;54.018;9.300;2022-08-11T07:36:23;20.60;99.90
31046;DHT22;17711;54.018;9.300;2022-08-11T07:38:55;20.70;99.90
31046;DHT22;17711;54.018;9.300;2022-08-11T07:41:25;20.70;99.90
31046;DHT22;17711;54.018;9.300;2022-08-11T07:43:58;20.80;99.90
31046;DHT22;17711;54.018;9.300;2022-08-11T07:46:39;21.00;99.90
31046;DHT22;17711;54.018;9.300;2022-08-11T07:49:29;21.10;99.90
31046;DHT22;17711;54.018;9.300;2022-08-11T07:52:17;21.30;99.90
31046;DHT22;17711;54.018;9.300;2022-08-11T07:55:03;21.50;99.90
31046;DHT22;17711;54.018;9.300;2022-08-11T07:57:35;21.60;99.90
31046;DHT22;17711;54.018;9.300;2022-08-11T08:00:44;21.90;99.90
31046;DHT22;17711;54.018;9.300;2022-08-11T08:03:44;22.20;99.90
31046;DHT22;17711;54.018;9.300;2022-08-11T08:06:32;22.50;99.90
31046;DHT22;17711;54.018;9.300;2022-08-11T08:09:20;22.70;99.90
31046;DHT22;17711;54.018;9.300;2022-08-11T08:12:08;23.00;99.90
31046;DHT22;17711;54.018;9.300;2022-08-11T08:14:55;23.70;99.90
31046;DHT22;17711;54.018;9.300;2022-08-11T08:17:42;24.70;99.90
31046;DHT22;17711;54.018;9.300;2022-08-11T08:20:46;25.80;99.90
31046;DHT22;17711;54.018;9.300;2022-08-11T08:23:16;27.30;99.90
31046;DHT22;17711;54.018;9.300;2022-08-11T08:26:03;28.60;81.30
31046;DHT22;17711;54.018;9.300;2022-08-11T08:28:42;30.00;87.10
31046;DHT22;17711;54.018;9.300;2022-08-11T08:31:13;31.20;68.50
31046;DHT22;17711;54.018;9.300;2022-08-11T08:33:42;31.90;60.20
31046;DHT22;17711;54.018;9.300;2022-08-11T08:36:12;32.70;57.70
31046;DHT22;17711;54.018;9.300;2022-08-11T08:38:47;33.80;54.20
31046;DHT22;17711;54.018;9.300;2022-08-11T08:41:26;34.30;52.00
31046;DHT22;17711;54.018;9.300;2022-08-11T08:43:58;35.00;55.10
31046;DHT22;17711;54.018;9.300;2022-08-11T08:46:53;35.70;50.20
31046;DHT22;17711;54.018;9.300;2022-08-11T08:49:25;36.20;42.50
31046;DHT22;17711;54.018;9.300;2022-08-11T08:52:01;36.40;40.50
31046;DHT22;17711;54.018;9.300;2022-08-11T08:54:54;36.70;44.00
31046;DHT22;17711;54.018;9.300;2022-08-11T08:57:27;37.10;40.00
31046;DHT22;17711;54.018;9.300;2022-08-11T08:59:57;37.70;36.20
31046;DHT22;17711;54.018;9.300;2022-08-11T09:02:27;37.90;37.60
31046;DHT22;17711;54.018;9.300;2022-08-11T09:05:01;38.10;39.00
31046;DHT22;17711;54.018;9.300;2022-08-11T09:07:32;38.50;37.60
31046;DHT22;17711;54.018;9.300;2022-08-11T09:10:07;39.10;34.90
31046;DHT22;17711;54.018;9.300;2022-08-11T09:12:39;39.50;30.90
31046;DHT22;17711;54.018;9.300;2022-08-11T09:15:10;39.80;31.90
31046;DHT22;17711;54.018;9.300;2022-08-11T09:17:46;39.90;34.30
31046;DHT22;17711;54.018;9.300;2022-08-11T09:20:18;39.80;32.70
31046;DHT22;17711;54.018;9.300;2022-08-11T09:22:49;40.10;32.10
31046;DHT22;17711;54.018;9.300;2022-08-11T09:25:58;40.10;33.50
31046;DHT22;17711;54.018;9.300;2022-08-11T09:28:45;40.20;31.10
31046;DHT22;17711;54.018;9.300;2022-08-11T09:31:16;40.80;31.20
31046;DHT22;17711;54.018;9.300;2022-08-11T09:33:51;41.00;28.40
31046;DHT22;17711;54.018;9.300;2022-08-11T09:36:21;41.40;29.70
31046;DHT22;17711;54.018;9.300;2022-08-11T09:39:09;41.50;30.10
31046;DHT22;17711;54.018;9.300;2022-08-11T09:41:59;42.30;28.40
31046;DHT22;17711;54.018;9.300;2022-08-11T09:44:31;41.90;28.30
31046;DHT22;17711;54.018;9.300;2022-08-11T09:47:21;41.50;28.50
31046;DHT22;17711;54.018;9.300;2022-08-11T09:49:54;41.40;28.30
31046;DHT22;17711;54.018;9.300;2022-08-11T09:52:28;41.60;29.70
31046;DHT22;17711;54.018;9.300;2022-08-11T09:55:00;41.60;29.30
31046;DHT22;17711;54.018;9.300;2022-08-11T09:57:38;41.50;27.40
31046;DHT22;17711;54.018;9.300;2022-08-11T10:00:28;41.60;28.30
31046;DHT22;17711;54.018;9.300;2022-08-11T10:02:58;41.80;26.00
31046;DHT22;17711;54.018;9.300;2022-08-11T10:05:29;41.90;27.50
31046;DHT22;17711;54.018;9.300;2022-08-11T10:08:17;42.30;28.40
31046;DHT22;17711;54.018;9.300;2022-08-11T10:10:48;42.40;28.20
31046;DHT22;17711;54.018;9.300;2022-08-11T10:13:19;42.20;27.10
31046;DHT22;17711;54.018;9.300;2022-08-11T10:16:12;42.30;28.50
31046;DHT22;17711;54.018;9.300;2022-08-11T10:18:45;42.20;27.10
31046;DHT22;17711;54.018;9.300;2022-08-11T10:21:25;42.50;26.40
31046;DHT22;17711;54.018;9.300;2022-08-11T10:23:57;42.90;27.90
31046;DHT22;17711;54.018;9.300;2022-08-11T10:26:47;43.30;26.10
31046;DHT22;17711;54.018;9.300;2022-08-11T10:29:24;43.80;26.50
31046;DHT22;17711;54.018;9.300;2022-08-11T10:32:19;44.20;24.30
31046;DHT22;17711;54.018;9.300;2022-08-11T10:35:26;43.70;24.10
31046;DHT22;17711;54.018;9.300;2022-08-11T10:37:55;43.00;25.20
31046;DHT22;17711;54.018;9.300;2022-08-11T10:40:36;42.50;24.50
31046;DHT22;17711;54.018;9.300;2022-08-11T10:43:08;42.70;26.70
31046;DHT22;17711;54.018;9.300;2022-08-11T10:45:44;43.60;25.30
31046;DHT22;17711;54.018;9.300;2022-08-11T10:48:35;43.50;23.40
31046;DHT22;17711;54.018;9.300;2022-08-11T10:51:04;43.40;25.60
31046;DHT22;17711;54.018;9.300;2022-08-11T10:53:43;43.40;23.90
31046;DHT22;17711;54.018;9.300;2022-08-11T10:56:32;43.40;24.60
31046;DHT22;17711;54.018;9.300;2022-08-11T10:59:22;43.00;23.50
31046;DHT22;17711;54.018;9.300;2022-08-11T11:01:51;43.30;25.30
31046;DHT22;17711;54.018;9.300;2022-08-11T11:04:23;44.00;25.80
31046;DHT22;17711;54.018;9.300;2022-08-11T11:07:03;44.50;25.20
31046;DHT22;17711;54.018;9.300;2022-08-11T11:09:38;44.60;23.60
31046;DHT22;17711;54.018;9.300;2022-08-11T11:12:10;44.60;24.50
31046;DHT22;17711;54.018;9.300;2022-08-11T11:15:02;44.70;25.50
31046;DHT22;17711;54.018;9.300;2022-08-11T11:17:53;45.50;23.90
31046;DHT22;17711;54.018;9.300;2022-08-11T11:20:34;45.30;23.50
31046;DHT22;17711;54.018;9.300;2022-08-11T11:23:14;45.10;23.20
31046;DHT22;17711;54.018;9.300;2022-08-11T11:25:59;44.80;22.80
31046;DHT22;17711;54.018;9.300;2022-08-11T11:28:53;44.40;22.10
31046;DHT22;17711;54.018;9.300;2022-08-11T11:31:41;44.10;23.40
31046;DHT22;17711;54.018;9.300;2022-08-11T11:34:21;44.10;25.50
31046;DHT22;17711;54.018;9.300;2022-08-11T11:36:53;44.30;22.40
31046;DHT22;17711;54.018;9.300;2022-08-11T11:39:25;43.80;25.30
31046;DHT22;17711;54.018;9.300;2022-08-11T11:41:56;43.80;24.10
31046;DHT22;17711;54.018;9.300;2022-08-11T11:44:27;44.00;23.60
31046;DHT22;17711;54.018;9.300;2022-08-11T11:46:59;43.90;23.70
31046;DHT22;17711;54.018;9.300;2022-08-11T11:49:29;43.70;24.90
31046;DHT22;17711;54.018;9.300;2022-08-11T11:51:59;43.20;23.80
31046;DHT22;17711;54.018;9.300;2022-08-11T11:54:30;43.50;23.50
31046;DHT22;17711;54.018;9.300;2022-08-11T11:56:59;43.80;23.40
31046;DHT22;17711;54.018;9.300;2022-08-11T11:59:50;44.40;24.70
31046;DHT22;17711;54.018;9.300;2022-08-11T12:02:40;44.90;24.50
31046;DHT22;17711;54.018;9.300;2022-08-11T12:05:10;45.00;24.40
31046;DHT22;17711;54.018;9.300;2022-08-11T12:07:39;44.60;23.20
31046;DHT22;17711;54.018;9.300;2022-08-11T12:10:40;44.20;24.80
31046;DHT22;17711;54.018;9.300;2022-08-11T12:13:11;44.10;25.00
31046;DHT22;17711;54.018;9.300;2022-08-11T12:15:58;43.40;23.70
31046;DHT22;17711;54.018;9.300;2022-08-11T12:18:53;43.30;25.30
31046;DHT22;17711;54.018;9.300;2022-08-11T12:21:23;43.60;24.00
31046;DHT22;17711;54.018;9.300;2022-08-11T12:23:54;43.70;24.00
31046;DHT22;17711;54.018;9.300;2022-08-11T12:26:41;43.10;23.50
31046;DHT22;17711;54.018;9.300;2022-08-11T12:29:45;43.00;24.80
31046;DHT22;17711;54.018;9.300;2022-08-11T12:32:24;43.20;24.30
31046;DHT22;17711;54.018;9.300;2022-08-11T12:34:55;43.80;24.40
31046;DHT22;17711;54.018;9.300;2022-08-11T12:37:29;44.20;22.10
31046;DHT22;17711;54.018;9.300;2022-08-11T12:40:00;44.40;22.70
31046;DHT22;17711;54.018;9.300;2022-08-11T12:43:13;44.70;23.30
31046;DHT22;17711;54.018;9.300;2022-08-11T12:46:07;44.60;23.30
31046;DHT22;17711;54.018;9.300;2022-08-11T12:48:45;44.10;23.00
31046;DHT22;17711;54.018;9.300;2022-08-11T12:51:35;43.60;23.10
31046;DHT22;17711;54.018;9.300;2022-08-11T12:54:52;43.40;23.60
31046;DHT22;17711;54.018;9.300;2022-08-11T12:57:28;43.40;24.00
31046;DHT22;17711;54.018;9.300;2022-08-11T13:00:15;43.80;24.60
31046;DHT22;17711;54.018;9.300;2022-08-11T13:03:04;44.20;21.30
31046;DHT22;17711;54.018;9.300;2022-08-11T13:05:53;44.40;24.20
31046;DHT22;17711;54.018;9.300;2022-08-11T13:08:26;44.70;23.80
31046;DHT22;17711;54.018;9.300;2022-08-11T13:10:58;44.60;20.90
31046;DHT22;17711;54.018;9.300;2022-08-11T13:13:48;44.30;21.60
31046;DHT22;17711;54.018;9.300;2022-08-11T13:16:24;44.30;21.90
31046;DHT22;17711;54.018;9.300;2022-08-11T13:18:55;43.90;24.20
31046;DHT22;17711;54.018;9.300;2022-08-11T13:21:26;43.40;24.60
31046;DHT22;17711;54.018;9.300;2022-08-11T13:23:57;43.10;25.10
31046;DHT22;17711;54.018;9.300;2022-08-11T13:26:33;43.60;25.60
31046;DHT22;17711;54.018;9.300;2022-08-11T13:29:22;43.60;26.20
31046;DHT22;17711;54.018;9.300;2022-08-11T13:31:53;44.10;25.30
31046;DHT22;17711;54.018;9.300;2022-08-11T13:34:23;44.40;24.10
31046;DHT22;17711;54.018;9.300;2022-08-11T13:36:53;44.50;23.30
31046;DHT22;17711;54.018;9.300;2022-08-11T13:39:26;44.40;23.50
31046;DHT22;17711;54.018;9.300;2022-08-11T13:41:57;44.60;24.30
31046;DHT22;17711;54.018;9.300;2022-08-11T13:44:28;44.70;24.30
31046;DHT22;17711;54.018;9.300;2022-08-11T13:47:00;44.80;22.60
31046;DHT22;17711;54.018;9.300;2022-08-11T13:49:36;44.80;23.60
31046;DHT22;17711;54.018;9.300;2022-08-11T13:52:09;44.80;24.00
31046;DHT22;17711;54.018;9.300;2022-08-11T13:54:42;44.40;22.60
31046;DHT22;17711;54.018;9.300;2022-08-11T13:57:14;43.80;24.20
31046;DHT22;17711;54.018;9.300;2022-08-11T14:00:08;43.90;24.50
31046;DHT22;17711;54.018;9.300;2022-08-11T14:02:53;43.60;24.20
31046;DHT22;17711;54.018;9.300;2022-08-11T14:05:26;43.30;25.10
31046;DHT22;17711;54.018;9.300;2022-08-11T14:07:59;43.20;22.70
31046;DHT22;17711;54.018;9.300;2022-08-11T14:10:31;43.10;24.60
31046;DHT22;17711;54.018;9.300;2022-08-11T14:13:02;43.50;24.20
31046;DHT22;17711;54.018;9.300;2022-08-11T14:15:51;42.70;25.00
31046;DHT22;17711;54.018;9.300;2022-08-11T14:18:21;42.50;26.40
31046;DHT22;17711;54.018;9.300;2022-08-11T14:20:54;42.70;24.60
31046;DHT22;17711;54.018;9.300;2022-08-11T14:23:42;42.90;25.70
31046;DHT22;17711;54.018;9.300;2022-08-11T14:26:16;43.10;24.10
31046;DHT22;17711;54.018;9.300;2022-08-11T14:28:55;42.90;24.20
31046;DHT22;17711;54.018;9.300;2022-08-11T14:31:26;42.60;25.30
31046;DHT22;17711;54.018;9.300;2022-08-11T14:33:58;42.30;25.20
31046;DHT22;17711;54.018;9.300;2022-08-11T14:36:30;42.40;25.00
31046;DHT22;17711;54.018;9.300;2022-08-11T14:39:02;42.40;25.30
31046;DHT22;17711;54.018;9.300;2022-08-11T14:41:35;42.40;24.80
31046;DHT22;17711;54.018;9.300;2022-08-11T14:44:41;42.20;23.50
31046;DHT22;17711;54.018;9.300;2022-08-11T14:47:45;42.10;26.30
31046;DHT22;17711;54.018;9.300;2022-08-11T14:50:17;41.60;27.60
31046;DHT22;17711;54.018;9.300;2022-08-11T14:52:50;41.30;26.70
31046;DHT22;17711;54.018;9.300;2022-08-11T14:55:23;41.20;27.40
31046;DHT22;17711;54.018;9.300;2022-08-11T14:58:15;40.80;27.40
31046;DHT22;17711;54.018;9.300;2022-08-11T15:00:44;40.10;27.40
31046;DHT22;17711;54.018;9.300;2022-08-11T15:03:14;39.50;28.00
31046;DHT22;17711;54.018;9.300;2022-08-11T15:05:46;39.20;27.40
31046;DHT22;17711;54.018;9.300;2022-08-11T15:08:26;38.90;29.90
31046;DHT22;17711;54.018;9.300;2022-08-11T15:11:10;38.80;25.90
31046;DHT22;17711;54.018;9.300;2022-08-11T15:13:55;38.80;27.20
31046;DHT22;17711;54.018;9.300;2022-08-11T15:16:25;38.90;27.60
31046;DHT22;17711;54.018;9.300;2022-08-11T15:19:12;38.60;27.90
31046;DHT22;17711;54.018;9.300;2022-08-11T15:21:42;38.30;27.30
31046;DHT22;17711;54.018;9.300;2022-08-11T15:24:28;38.20;29.50
31046;DHT22;17711;54.018;9.300;2022-08-11T15:26:58;38.10;29.50
31046;DHT22;17711;54.018;9.300;2022-08-11T15:29:48;37.90;30.20
31046;DHT22;17711;54.018;9.300;2022-08-11T15:32:45;37.60;29.00
31046;DHT22;17711;54.018;9.300;2022-08-11T15:35:35;37.30;29.30
31046;DHT22;17711;54.018;9.300;2022-08-11T15:38:23;37.10;31.20
31046;DHT22;17711;54.018;9.300;2022-08-11T15:40:54;37.20;30.70
31046;DHT22;17711;54.018;9.300;2022-08-11T15:43:43;37.10;30.60
31046;DHT22;17711;54.018;9.300;2022-08-11T15:46:37;36.70;30.40
31046;DHT22;17711;54.018;9.300;2022-08-11T15:49:10;36.50;31.10
31046;DHT22;17711;54.018;9.300;2022-08-11T15:51:52;36.30;32.30
31046;DHT22;17711;54.018;9.300;2022-08-11T15:54:30;35.90;32.80
31046;DHT22;17711;54.018;9.300;2022-08-11T15:57:01;35.80;31.80
31046;DHT22;17711;54.018;9.300;2022-08-11T15:59:35;35.70;31.90
31046;DHT22;17711;54.018;9.300;2022-08-11T16:02:24;35.70;32.00
31046;DHT22;17711;54.018;9.300;2022-08-11T16:05:11;35.50;33.00
31046;DHT22;17711;54.018;9.300;2022-08-11T16:08:02;35.30;34.10
31046;DHT22;17711;54.018;9.300;2022-08-11T16:10:32;35.00;33.20
31046;DHT22;17711;54.018;9.300;2022-08-11T16:13:08;34.90;34.90
31046;DHT22;17711;54.018;9.300;2022-08-11T16:15:56;34.80;35.50
31046;DHT22;17711;54.018;9.300;2022-08-11T16:18:50;34.70;36.60
31046;DHT22;17711;54.018;9.300;2022-08-11T16:21:25;34.50;36.00
31046;DHT22;17711;54.018;9.300;2022-08-11T16:24:04;34.40;37.60
31046;DHT22;17711;54.018;9.300;2022-08-11T16:26:36;34.00;37.50
31046;DHT22;17711;54.018;9.300;2022-08-11T16:29:27;33.70;38.20
31046;DHT22;17711;54.018;9.300;2022-08-11T16:31:58;33.20;40.00
31046;DHT22;17711;54.018;9.300;2022-08-11T16:34:51;32.80;38.60
31046;DHT22;17711;54.018;9.300;2022-08-11T16:37:38;32.40;40.20
31046;DHT22;17711;54.018;9.300;2022-08-11T16:40:25;32.00;41.00
31046;DHT22;17711;54.018;9.300;2022-08-11T16:42:57;31.70;42.20
31046;DHT22;17711;54.018;9.300;2022-08-11T16:45:44;31.50;43.10
31046;DHT22;17711;54.018;9.300;2022-08-11T16:48:33;31.30;44.50
31046;DHT22;17711;54.018;9.300;2022-08-11T16:51:07;31.00;44.70
31046;DHT22;17711;54.018;9.300;2022-08-11T16:53:41;30.80;45.60
31046;DHT22;17711;54.018;9.300;2022-08-11T16:56:34;30.50;46.90
31046;DHT22;17711;54.018;9.300;2022-08-11T16:59:07;30.40;47.40
31046;DHT22;17711;54.018;9.300;2022-08-11T17:01:47;30.20;48.70
31046;DHT22;17711;54.018;9.300;2022-08-11T17:04:27;30.10;49.80
31046;DHT22;17711;54.018;9.300;2022-08-11T17:07:18;30.00;50.20
31046;DHT22;17711;54.018;9.300;2022-08-11T17:10:20;29.80;50.70
31046;DHT22;17711;54.018;9.300;2022-08-11T17:13:24;29.70;50.70
31046;DHT22;17711;54.018;9.300;2022-08-11T17:15:59;29.40;52.30
31046;DHT22;17711;54.018;9.300;2022-08-11T17:18:47;29.40;50.60
31046;DHT22;17711;54.018;9.300;2022-08-11T17:21:20;29.30;51.10
31046;DHT22;17711;54.018;9.300;2022-08-11T17:23:56;29.30;52.20
31046;DHT22;17711;54.018;9.300;2022-08-11T17:26:32;29.10;51.70
31046;DHT22;17711;54.018;9.300;2022-08-11T17:29:22;29.00;52.10
31046;DHT22;17711;54.018;9.300;2022-08-11T17:31:53;28.90;52.30
31046;DHT22;17711;54.018;9.300;2022-08-11T17:34:42;28.80;52.80
31046;DHT22;17711;54.018;9.300;2022-08-11T17:37:31;28.70;53.80
31046;DHT22;17711;54.018;9.300;2022-08-11T17:40:05;28.70;54.00
31046;DHT22;17711;54.018;9.300;2022-08-11T17:42:35;28.50;53.60
31046;DHT22;17711;54.018;9.300;2022-08-11T17:45:23;28.50;54.80
31046;DHT22;17711;54.018;9.300;2022-08-11T17:48:10;28.30;54.20
31046;DHT22;17711;54.018;9.300;2022-08-11T17:50:56;28.20;55.10
31046;DHT22;17711;54.018;9.300;2022-08-11T17:53:28;28.00;56.10
31046;DHT22;17711;54.018;9.300;2022-08-11T17:56:38;27.90;57.10
31046;DHT22;17711;54.018;9.300;2022-08-11T17:59:24;27.80;58.30
31046;DHT22;17711;54.018;9.300;2022-08-11T18:02:16;27.70;58.10